sensor_id;sensor_type;location;lat;lon;timestamp;P1;durP1;ratioP1;P2;durP2;ratioP2
14316;SDS011;7242;50.858;6.586;2023-04-24T00:02:06;1.23;;;1.10;;
14316;SDS011;7242;50.858;6.586;2023-04-24T00:05:10;1.63;;;1.03;;
14316;SDS011;7242;50.858;6.586;2023-04-24T00:08:11;1.03;;;0.97;;
14316;SDS011;7242;50.858;6.586;2023-04-24T00:11:12;1.13;;;1.00;;
14316;SDS011;7242;50.858;6.586;2023-04-24T00:14:13;2.00;;;1.03;;
14316;SDS011;7242;50.858;6.586;2023-04-24T00:17:14;1.30;;;1.20;;
14316;SDS011;7242;50.858;6.586;2023-04-24T00:20:15;2.13;;;1.23;;
14316;SDS011;7242;50.858;6.586;2023-04-24T00:23:16;1.23;;;1.10;;
14316;SDS011;7242;50.858;6.586;2023-04-24T00:26:17;2.33;;;1.10;;
14316;SDS011;7242;50.858;6.586;2023-04-24T00:29:17;1.53;;;1.37;;
14316;SDS011;7242;50.858;6.586;2023-04-24T00:32:18;1.30;;;1.20;;
14316;SDS011;7242;50.858;6.586;2023-04-24T00:35:19;1.53;;;1.10;;
14316;SDS011;7242;50.858;6.586;2023-04-24T00:38:20;1.10;;;1.10;;
14316;SDS011;7242;50.858;6.586;2023-04-24T00:41:22;1.40;;;1.30;;
14316;SDS011;7242;50.858;6.586;2023-04-24T00:44:23;2.40;;;1.50;;
14316;SDS011;7242;50.858;6.586;2023-04-24T00:47:25;1.67;;;1.57;;
14316;SDS011;7242;50.858;6.586;2023-04-24T00:50:26;3.17;;;1.70;;
14316;SDS011;7242;50.858;6.586;2023-04-24T00:53:27;2.30;;;2.10;;
14316;SDS011;7242;50.858;6.586;2023-04-24T00:56:28;2.93;;;1.83;;
14316;SDS011;7242;50.858;6.586;2023-04-24T00:59:29;3.50;;;2.40;;
14316;SDS011;7242;50.858;6.586;2023-04-24T01:02:30;3.10;;;2.80;;
14316;SDS011;7242;50.858;6.586;2023-04-24T01:05:34;4.10;;;3.70;;
14316;SDS011;7242;50.858;6.586;2023-04-24T01:08:35;4.97;;;4.10;;
14316;SDS011;7242;50.858;6.586;2023-04-24T01:11:37;4.40;;;4.00;;
14316;SDS011;7242;50.858;6.586;2023-04-24T01:14:38;4.50;;;4.10;;
14316;SDS011;7242;50.858;6.586;2023-04-24T01:17:39;5.00;;;4.50;;
14316;SDS011;7242;50.858;6.586;2023-04-24T01:20:41;5.27;;;4.20;;
14316;SDS011;7242;50.858;6.586;2023-04-24T01:23:44;5.00;;;4.40;;
14316;SDS011;7242;50.858;6.586;2023-04-24T01:26:46;5.37;;;4.33;;
14316;SDS011;7242;50.858;6.586;2023-04-24T01:29:46;4.93;;;4.37;;
14316;SDS011;7242;50.858;6.586;2023-04-24T01:32:49;6.23;;;4.33;;
14316;SDS011;7242;50.858;6.586;2023-04-24T01:35:50;7.73;;;5.10;;
14316;SDS011;7242;50.858;6.586;2023-04-24T01:38:52;6.17;;;5.17;;
14316;SDS011;7242;50.858;6.586;2023-04-24T01:41:53;6.50;;;5.43;;
14316;SDS011;7242;50.858;6.586;2023-04-24T01:44:54;9.17;;;5.77;;
14316;SDS011;7242;50.858;6.586;2023-04-24T01:47:56;6.30;;;5.70;;
14316;SDS011;7242;50.858;6.586;2023-04-24T01:50:57;6.10;;;5.47;;
14316;SDS011;7242;50.858;6.586;2023-04-24T01:53:59;6.60;;;5.60;;
14316;SDS011;7242;50.858;6.586;2023-04-24T01:57:00;6.47;;;5.70;;
14316;SDS011;7242;50.858;6.586;2023-04-24T02:00:02;7.97;;;5.00;;
14316;SDS011;7242;50.858;6.586;2023-04-24T02:03:13;7.00;;;5.60;;
14316;SDS011;7242;50.858;6.586;2023-04-24T02:06:14;6.03;;;5.20;;
14316;SDS011;7242;50.858;6.586;2023-04-24T02:09:15;6.47;;;5.60;;
14316;SDS011;7242;50.858;6.586;2023-04-24T02:12:16;6.57;;;5.13;;
14316;SDS011;7242;50.858;6.586;2023-04-24T02:15:18;6.73;;;5.63;;
14316;SDS011;7242;50.858;6.586;2023-04-24T02:18:18;7.57;;;6.13;;
14316;SDS011;7242;50.858;6.586;2023-04-24T02:21:20;7.43;;;6.00;;
14316;SDS011;7242;50.858;6.586;2023-04-24T02:24:21;8.37;;;6.00;;
14316;SDS011;7242;50.858;6.586;2023-04-24T02:27:22;6.60;;;5.60;;
14316;SDS011;7242;50.858;6.586;2023-04-24T02:30:22;7.70;;;6.33;;
14316;SDS011;7242;50.858;6.586;2023-04-24T02:33:23;7.47;;;6.67;;
14316;SDS011;7242;50.858;6.586;2023-04-24T02:36:24;8.60;;;7.17;;
14316;SDS011;7242;50.858;6.586;2023-04-24T02:39:25;7.30;;;6.60;;
14316;SDS011;7242;50.858;6.586;2023-04-24T02:42:26;8.33;;;7.50;;
14316;SDS011;7242;50.858;6.586;2023-04-24T02:45:27;7.50;;;6.80;;
14316;SDS011;7242;50.858;6.586;2023-04-24T02:48:27;9.53;;;7.23;;
14316;SDS011;7242;50.858;6.586;2023-04-24T02:51:29;8.80;;;7.30;;
14316;SDS011;7242;50.858;6.586;2023-04-24T02:54:29;8.20;;;7.37;;
14316;SDS011;7242;50.858;6.586;2023-04-24T02:57:30;9.43;;;7.40;;
14316;SDS011;7242;50.858;6.586;2023-04-24T03:00:31;8.80;;;7.47;;
14316;SDS011;7242;50.858;6.586;2023-04-24T03:03:32;8.27;;;7.10;;
14316;SDS011;7242;50.858;6.586;2023-04-24T03:06:33;9.27;;;7.43;;
14316;SDS011;7242;50.858;6.586;2023-04-24T03:09:35;8.30;;;7.40;;
14316;SDS011;7242;50.858;6.586;2023-04-24T03:12:36;9.53;;;7.53;;
14316;SDS011;7242;50.858;6.586;2023-04-24T03:15:36;8.50;;;6.90;;
14316;SDS011;7242;50.858;6.586;2023-04-24T03:18:37;8.23;;;6.87;;
14316;SDS011;7242;50.858;6.586;2023-04-24T03:21:39;10.30;;;6.87;;
14316;SDS011;7242;50.858;6.586;2023-04-24T03:24:41;7.83;;;6.73;;
14316;SDS011;7242;50.858;6.586;2023-04-24T03:27:42;7.97;;;6.80;;
14316;SDS011;7242;50.858;6.586;2023-04-24T03:30:54;9.07;;;6.33;;
14316;SDS011;7242;50.858;6.586;2023-04-24T03:33:57;8.53;;;6.47;;
14316;SDS011;7242;50.858;6.586;2023-04-24T03:36:58;8.10;;;6.07;;
14316;SDS011;7242;50.858;6.586;2023-04-24T03:40:00;6.87;;;6.00;;
14316;SDS011;7242;50.858;6.586;2023-04-24T03:43:03;8.47;;;5.77;;
14316;SDS011;7242;50.858;6.586;2023-04-24T03:46:04;6.30;;;5.70;;
14316;SDS011;7242;50.858;6.586;2023-04-24T03:49:10;9.00;;;7.03;;
14316;SDS011;7242;50.858;6.586;2023-04-24T03:52:15;8.43;;;6.87;;
14316;SDS011;7242;50.858;6.586;2023-04-24T03:55:17;10.77;;;7.37;;
14316;SDS011;7242;50.858;6.586;2023-04-24T03:58:21;8.33;;;5.73;;
14316;SDS011;7242;50.858;6.586;2023-04-24T04:01:22;10.20;;;6.13;;
14316;SDS011;7242;50.858;6.586;2023-04-24T04:04:37;8.17;;;6.00;;
14316;SDS011;7242;50.858;6.586;2023-04-24T04:07:38;6.80;;;5.93;;
14316;SDS011;7242;50.858;6.586;2023-04-24T04:10:39;5.40;;;4.83;;
14316;SDS011;7242;50.858;6.586;2023-04-24T04:13:40;6.23;;;5.03;;
14316;SDS011;7242;50.858;6.586;2023-04-24T04:16:41;4.93;;;4.53;;
14316;SDS011;7242;50.858;6.586;2023-04-24T04:19:42;6.30;;;4.80;;
14316;SDS011;7242;50.858;6.586;2023-04-24T04:22:43;5.63;;;4.83;;
14316;SDS011;7242;50.858;6.586;2023-04-24T04:25:46;6.00;;;5.13;;
14316;SDS011;7242;50.858;6.586;2023-04-24T04:28:48;8.30;;;6.43;;
14316;SDS011;7242;50.858;6.586;2023-04-24T04:31:49;14.83;;;12.33;;
14316;SDS011;7242;50.858;6.586;2023-04-24T04:34:50;6.33;;;4.90;;
14316;SDS011;7242;50.858;6.586;2023-04-24T04:37:53;19.70;;;16.93;;
14316;SDS011;7242;50.858;6.586;2023-04-24T04:41:20;10.20;;;9.10;;
14316;SDS011;7242;50.858;6.586;2023-04-24T04:44:21;6.20;;;5.60;;
14316;SDS011;7242;50.858;6.586;2023-04-24T04:47:25;5.97;;;5.37;;
14316;SDS011;7242;50.858;6.586;2023-04-24T04:50:29;7.93;;;5.13;;
14316;SDS011;7242;50.858;6.586;2023-04-24T04:53:36;6.13;;;5.20;;
14316;SDS011;7242;50.858;6.586;2023-04-24T04:56:37;7.77;;;5.53;;
14316;SDS011;7242;50.858;6.586;2023-04-24T04:59:38;6.20;;;5.50;;
14316;SDS011;7242;50.858;6.586;2023-04-24T05:02:45;6.77;;;5.93;;
14316;SDS011;7242;50.858;6.586;2023-04-24T05:05:46;6.40;;;5.80;;
14316;SDS011;7242;50.858;6.586;2023-04-24T05:08:49;6.97;;;5.70;;
14316;SDS011;7242;50.858;6.586;2023-04-24T05:12:11;6.80;;;6.10;;
14316;SDS011;7242;50.858;6.586;2023-04-24T05:15:20;9.57;;;8.57;;
14316;SDS011;7242;50.858;6.586;2023-04-24T05:18:21;8.77;;;6.97;;
14316;SDS011;7242;50.858;6.586;2023-04-24T05:21:23;9.27;;;6.10;;
14316;SDS011;7242;50.858;6.586;2023-04-24T05:24:25;5.90;;;5.30;;
14316;SDS011;7242;50.858;6.586;2023-04-24T05:28:02;5.73;;;5.20;;
14316;SDS011;7242;50.858;6.586;2023-04-24T05:31:03;6.73;;;5.40;;
14316;SDS011;7242;50.858;6.586;2023-04-24T05:34:04;6.73;;;4.83;;
14316;SDS011;7242;50.858;6.586;2023-04-24T05:37:06;5.67;;;4.53;;
14316;SDS011;7242;50.858;6.586;2023-04-24T05:40:09;7.30;;;4.00;;
14316;SDS011;7242;50.858;6.586;2023-04-24T05:43:11;6.37;;;3.63;;
14316;SDS011;7242;50.858;6.586;2023-04-24T05:46:12;3.90;;;3.40;;
14316;SDS011;7242;50.858;6.586;2023-04-24T05:49:13;4.33;;;3.50;;
14316;SDS011;7242;50.858;6.586;2023-04-24T05:52:14;5.67;;;3.20;;
14316;SDS011;7242;50.858;6.586;2023-04-24T05:55:16;3.83;;;2.90;;
14316;SDS011;7242;50.858;6.586;2023-04-24T05:58:17;3.10;;;2.47;;
14316;SDS011;7242;50.858;6.586;2023-04-24T06:01:18;2.80;;;2.33;;
14316;SDS011;7242;50.858;6.586;2023-04-24T06:04:25;2.57;;;2.00;;
14316;SDS011;7242;50.858;6.586;2023-04-24T06:07:26;2.03;;;1.83;;
14316;SDS011;7242;50.858;6.586;2023-04-24T06:10:27;1.80;;;1.70;;
14316;SDS011;7242;50.858;6.586;2023-04-24T06:13:28;3.20;;;1.90;;
14316;SDS011;7242;50.858;6.586;2023-04-24T06:16:52;2.93;;;2.00;;
14316;SDS011;7242;50.858;6.586;2023-04-24T06:20:05;2.57;;;2.10;;
14316;SDS011;7242;50.858;6.586;2023-04-24T06:23:06;4.17;;;2.67;;
14316;SDS011;7242;50.858;6.586;2023-04-24T06:26:07;3.50;;;2.50;;
14316;SDS011;7242;50.858;6.586;2023-04-24T06:29:09;2.70;;;2.50;;
14316;SDS011;7242;50.858;6.586;2023-04-24T06:32:09;3.13;;;2.83;;
14316;SDS011;7242;50.858;6.586;2023-04-24T06:35:11;3.10;;;2.80;;
14316;SDS011;7242;50.858;6.586;2023-04-24T06:38:12;3.10;;;2.80;;
14316;SDS011;7242;50.858;6.586;2023-04-24T06:41:13;2.70;;;2.50;;
14316;SDS011;7242;50.858;6.586;2023-04-24T06:44:14;3.00;;;2.80;;
14316;SDS011;7242;50.858;6.586;2023-04-24T06:47:15;4.53;;;2.77;;
14316;SDS011;7242;50.858;6.586;2023-04-24T06:50:16;3.33;;;3.03;;
14316;SDS011;7242;50.858;6.586;2023-04-24T06:53:17;4.00;;;2.93;;
14316;SDS011;7242;50.858;6.586;2023-04-24T06:56:18;3.60;;;3.30;;
14316;SDS011;7242;50.858;6.586;2023-04-24T06:59:20;3.90;;;3.50;;
14316;SDS011;7242;50.858;6.586;2023-04-24T07:02:21;4.00;;;3.70;;
14316;SDS011;7242;50.858;6.586;2023-04-24T07:05:22;4.33;;;3.70;;
14316;SDS011;7242;50.858;6.586;2023-04-24T07:08:23;4.30;;;3.50;;
14316;SDS011;7242;50.858;6.586;2023-04-24T07:11:25;4.33;;;3.40;;
14316;SDS011;7242;50.858;6.586;2023-04-24T07:14:29;4.67;;;3.67;;
14316;SDS011;7242;50.858;6.586;2023-04-24T07:17:30;4.97;;;3.40;;
14316;SDS011;7242;50.858;6.586;2023-04-24T07:20:31;3.80;;;3.50;;
14316;SDS011;7242;50.858;6.586;2023-04-24T07:23:33;2.70;;;2.50;;
14316;SDS011;7242;50.858;6.586;2023-04-24T07:26:34;2.13;;;1.93;;
14316;SDS011;7242;50.858;6.586;2023-04-24T07:29:35;1.77;;;1.47;;
14316;SDS011;7242;50.858;6.586;2023-04-24T07:32:36;2.93;;;1.70;;
14316;SDS011;7242;50.858;6.586;2023-04-24T07:35:37;2.00;;;1.80;;
14316;SDS011;7242;50.858;6.586;2023-04-24T07:38:38;2.13;;;1.63;;
14316;SDS011;7242;50.858;6.586;2023-04-24T07:41:39;1.80;;;1.53;;
14316;SDS011;7242;50.858;6.586;2023-04-24T07:44:40;2.30;;;2.10;;
14316;SDS011;7242;50.858;6.586;2023-04-24T07:47:41;2.40;;;2.20;;
14316;SDS011;7242;50.858;6.586;2023-04-24T07:50:44;2.90;;;2.50;;
14316;SDS011;7242;50.858;6.586;2023-04-24T07:53:45;4.13;;;2.83;;
14316;SDS011;7242;50.858;6.586;2023-04-24T07:56:46;3.10;;;2.80;;
14316;SDS011;7242;50.858;6.586;2023-04-24T07:59:47;5.20;;;3.73;;
14316;SDS011;7242;50.858;6.586;2023-04-24T08:02:47;3.50;;;3.20;;
14316;SDS011;7242;50.858;6.586;2023-04-24T08:05:48;4.80;;;3.40;;
14316;SDS011;7242;50.858;6.586;2023-04-24T08:08:51;3.90;;;3.20;;
14316;SDS011;7242;50.858;6.586;2023-04-24T08:11:52;3.77;;;3.40;;
14316;SDS011;7242;50.858;6.586;2023-04-24T08:14:53;5.00;;;3.43;;
14316;SDS011;7242;50.858;6.586;2023-04-24T08:17:54;4.27;;;3.50;;
14316;SDS011;7242;50.858;6.586;2023-04-24T08:20:54;3.40;;;2.80;;
14316;SDS011;7242;50.858;6.586;2023-04-24T08:23:56;4.70;;;3.20;;
14316;SDS011;7242;50.858;6.586;2023-04-24T08:26:57;3.73;;;2.80;;
14316;SDS011;7242;50.858;6.586;2023-04-24T08:29:58;3.83;;;3.07;;
14316;SDS011;7242;50.858;6.586;2023-04-24T08:32:59;3.43;;;2.73;;
14316;SDS011;7242;50.858;6.586;2023-04-24T08:36:01;3.47;;;3.17;;
14316;SDS011;7242;50.858;6.586;2023-04-24T08:39:05;3.30;;;3.00;;
14316;SDS011;7242;50.858;6.586;2023-04-24T08:42:07;5.40;;;3.60;;
14316;SDS011;7242;50.858;6.586;2023-04-24T08:45:08;3.83;;;3.50;;
14316;SDS011;7242;50.858;6.586;2023-04-24T08:48:11;4.77;;;4.33;;
14316;SDS011;7242;50.858;6.586;2023-04-24T08:51:12;4.70;;;4.20;;
14316;SDS011;7242;50.858;6.586;2023-04-24T08:54:13;4.67;;;4.17;;
14316;SDS011;7242;50.858;6.586;2023-04-24T08:57:14;6.23;;;4.80;;
14316;SDS011;7242;50.858;6.586;2023-04-24T09:00:16;5.37;;;4.60;;
14316;SDS011;7242;50.858;6.586;2023-04-24T09:03:17;4.77;;;4.33;;
14316;SDS011;7242;50.858;6.586;2023-04-24T09:06:18;5.13;;;4.63;;
14316;SDS011;7242;50.858;6.586;2023-04-24T09:09:20;5.47;;;4.77;;
14316;SDS011;7242;50.858;6.586;2023-04-24T09:12:21;6.13;;;4.50;;
14316;SDS011;7242;50.858;6.586;2023-04-24T09:15:22;7.23;;;4.80;;
14316;SDS011;7242;50.858;6.586;2023-04-24T09:18:23;6.07;;;4.60;;
14316;SDS011;7242;50.858;6.586;2023-04-24T09:21:36;6.10;;;5.20;;
14316;SDS011;7242;50.858;6.586;2023-04-24T09:24:37;5.53;;;4.87;;
14316;SDS011;7242;50.858;6.586;2023-04-24T09:27:42;6.50;;;4.90;;
14316;SDS011;7242;50.858;6.586;2023-04-24T09:30:44;5.60;;;4.77;;
14316;SDS011;7242;50.858;6.586;2023-04-24T09:33:54;5.93;;;4.63;;
14316;SDS011;7242;50.858;6.586;2023-04-24T09:36:56;5.93;;;4.43;;
14316;SDS011;7242;50.858;6.586;2023-04-24T09:43:12;8.07;;;4.50;;
14316;SDS011;7242;50.858;6.586;2023-04-24T09:46:13;7.07;;;4.70;;
14316;SDS011;7242;50.858;6.586;2023-04-24T09:49:14;5.67;;;4.13;;
14316;SDS011;7242;50.858;6.586;2023-04-24T09:52:16;8.10;;;4.67;;
14316;SDS011;7242;50.858;6.586;2023-04-24T09:55:18;5.50;;;4.50;;
14316;SDS011;7242;50.858;6.586;2023-04-24T09:58:26;5.37;;;4.10;;
14316;SDS011;7242;50.858;6.586;2023-04-24T10:01:32;4.80;;;4.13;;
14316;SDS011;7242;50.858;6.586;2023-04-24T10:04:32;5.17;;;3.60;;
14316;SDS011;7242;50.858;6.586;2023-04-24T10:07:34;6.43;;;3.83;;
14316;SDS011;7242;50.858;6.586;2023-04-24T10:10:38;6.53;;;4.40;;
14316;SDS011;7242;50.858;6.586;2023-04-24T10:13:43;6.97;;;4.10;;
14316;SDS011;7242;50.858;6.586;2023-04-24T10:16:44;7.83;;;4.27;;
14316;SDS011;7242;50.858;6.586;2023-04-24T10:19:48;7.30;;;4.13;;
14316;SDS011;7242;50.858;6.586;2023-04-24T10:22:50;8.00;;;4.63;;
14316;SDS011;7242;50.858;6.586;2023-04-24T10:25:51;8.40;;;4.90;;
14316;SDS011;7242;50.858;6.586;2023-04-24T10:28:53;8.30;;;4.37;;
14316;SDS011;7242;50.858;6.586;2023-04-24T10:31:57;7.77;;;4.17;;
14316;SDS011;7242;50.858;6.586;2023-04-24T10:34:58;5.20;;;4.03;;
14316;SDS011;7242;50.858;6.586;2023-04-24T10:38:02;6.70;;;4.17;;
14316;SDS011;7242;50.858;6.586;2023-04-24T10:41:10;8.90;;;4.47;;
14316;SDS011;7242;50.858;6.586;2023-04-24T10:44:16;7.37;;;4.77;;
14316;SDS011;7242;50.858;6.586;2023-04-24T10:47:17;7.50;;;5.10;;
14316;SDS011;7242;50.858;6.586;2023-04-24T10:50:18;8.47;;;5.20;;
14316;SDS011;7242;50.858;6.586;2023-04-24T10:53:20;9.47;;;4.70;;
14316;SDS011;7242;50.858;6.586;2023-04-24T10:56:26;9.30;;;4.73;;
14316;SDS011;7242;50.858;6.586;2023-04-24T10:59:27;7.13;;;4.33;;
14316;SDS011;7242;50.858;6.586;2023-04-24T11:02:38;8.07;;;4.23;;
14316;SDS011;7242;50.858;6.586;2023-04-24T11:05:57;6.67;;;4.50;;
14316;SDS011;7242;50.858;6.586;2023-04-24T11:09:06;7.93;;;4.70;;
14316;SDS011;7242;50.858;6.586;2023-04-24T11:12:11;9.23;;;4.60;;
14316;SDS011;7242;50.858;6.586;2023-04-24T11:15:14;7.77;;;4.13;;
14316;SDS011;7242;50.858;6.586;2023-04-24T11:18:17;7.43;;;3.90;;
14316;SDS011;7242;50.858;6.586;2023-04-24T11:21:17;6.57;;;3.67;;
14316;SDS011;7242;50.858;6.586;2023-04-24T11:27:42;9.33;;;3.97;;
14316;SDS011;7242;50.858;6.586;2023-04-24T11:30:46;8.47;;;4.20;;
14316;SDS011;7242;50.858;6.586;2023-04-24T11:33:46;8.03;;;4.10;;
14316;SDS011;7242;50.858;6.586;2023-04-24T11:36:47;8.33;;;4.47;;
14316;SDS011;7242;50.858;6.586;2023-04-24T11:39:55;9.50;;;4.60;;
14316;SDS011;7242;50.858;6.586;2023-04-24T11:42:59;8.53;;;4.53;;
14316;SDS011;7242;50.858;6.586;2023-04-24T11:46:00;9.90;;;5.17;;
14316;SDS011;7242;50.858;6.586;2023-04-24T11:49:01;7.43;;;5.47;;
14316;SDS011;7242;50.858;6.586;2023-04-24T11:52:02;11.20;;;5.77;;
14316;SDS011;7242;50.858;6.586;2023-04-24T11:55:06;9.37;;;5.60;;
14316;SDS011;7242;50.858;6.586;2023-04-24T11:58:27;9.93;;;5.97;;
14316;SDS011;7242;50.858;6.586;2023-04-24T12:01:28;9.23;;;5.57;;
14316;SDS011;7242;50.858;6.586;2023-04-24T12:04:37;10.23;;;4.93;;
14316;SDS011;7242;50.858;6.586;2023-04-24T12:07:41;9.57;;;5.07;;
14316;SDS011;7242;50.858;6.586;2023-04-24T12:10:42;9.33;;;4.73;;
14316;SDS011;7242;50.858;6.586;2023-04-24T12:13:43;11.57;;;4.50;;
14316;SDS011;7242;50.858;6.586;2023-04-24T12:16:47;7.13;;;4.07;;
14316;SDS011;7242;50.858;6.586;2023-04-24T12:19:48;6.70;;;3.80;;
14316;SDS011;7242;50.858;6.586;2023-04-24T12:22:51;7.63;;;3.90;;
14316;SDS011;7242;50.858;6.586;2023-04-24T12:25:54;6.27;;;3.73;;
14316;SDS011;7242;50.858;6.586;2023-04-24T12:29:01;8.87;;;4.10;;
14316;SDS011;7242;50.858;6.586;2023-04-24T12:32:02;9.20;;;4.10;;
14316;SDS011;7242;50.858;6.586;2023-04-24T12:35:04;8.23;;;4.03;;
14316;SDS011;7242;50.858;6.586;2023-04-24T12:38:09;9.27;;;4.70;;
14316;SDS011;7242;50.858;6.586;2023-04-24T12:41:13;9.17;;;4.30;;
14316;SDS011;7242;50.858;6.586;2023-04-24T12:44:14;6.70;;;4.13;;
14316;SDS011;7242;50.858;6.586;2023-04-24T12:47:15;5.90;;;3.83;;
14316;SDS011;7242;50.858;6.586;2023-04-24T12:50:16;6.17;;;3.93;;
14316;SDS011;7242;50.858;6.586;2023-04-24T12:53:17;7.80;;;3.53;;
14316;SDS011;7242;50.858;6.586;2023-04-24T12:56:18;8.73;;;3.90;;
14316;SDS011;7242;50.858;6.586;2023-04-24T12:59:19;9.00;;;4.10;;
14316;SDS011;7242;50.858;6.586;2023-04-24T13:02:20;8.57;;;4.27;;
14316;SDS011;7242;50.858;6.586;2023-04-24T13:05:22;7.73;;;4.43;;
14316;SDS011;7242;50.858;6.586;2023-04-24T13:08:22;10.67;;;4.83;;
14316;SDS011;7242;50.858;6.586;2023-04-24T13:11:23;7.40;;;4.37;;
14316;SDS011;7242;50.858;6.586;2023-04-24T13:14:24;6.93;;;4.40;;
14316;SDS011;7242;50.858;6.586;2023-04-24T13:17:25;9.20;;;4.50;;
14316;SDS011;7242;50.858;6.586;2023-04-24T13:20:26;8.43;;;4.60;;
14316;SDS011;7242;50.858;6.586;2023-04-24T13:23:27;8.73;;;4.40;;
14316;SDS011;7242;50.858;6.586;2023-04-24T13:26:28;8.37;;;4.63;;
14316;SDS011;7242;50.858;6.586;2023-04-24T13:29:28;8.03;;;4.50;;
14316;SDS011;7242;50.858;6.586;2023-04-24T13:32:29;8.33;;;4.57;;
14316;SDS011;7242;50.858;6.586;2023-04-24T13:35:30;8.67;;;4.80;;
14316;SDS011;7242;50.858;6.586;2023-04-24T13:38:31;8.63;;;4.83;;
14316;SDS011;7242;50.858;6.586;2023-04-24T13:41:32;8.93;;;5.20;;
14316;SDS011;7242;50.858;6.586;2023-04-24T13:44:33;8.67;;;4.70;;
14316;SDS011;7242;50.858;6.586;2023-04-24T13:47:34;5.80;;;4.27;;
14316;SDS011;7242;50.858;6.586;2023-04-24T13:50:36;9.63;;;5.10;;
14316;SDS011;7242;50.858;6.586;2023-04-24T13:53:37;8.13;;;4.50;;
14316;SDS011;7242;50.858;6.586;2023-04-24T13:56:39;7.80;;;4.70;;
14316;SDS011;7242;50.858;6.586;2023-04-24T13:59:40;8.70;;;4.00;;
14316;SDS011;7242;50.858;6.586;2023-04-24T14:02:41;8.07;;;4.30;;
14316;SDS011;7242;50.858;6.586;2023-04-24T14:05:42;7.80;;;4.07;;
14316;SDS011;7242;50.858;6.586;2023-04-24T14:08:43;7.67;;;4.07;;
14316;SDS011;7242;50.858;6.586;2023-04-24T14:11:44;7.37;;;3.93;;
14316;SDS011;7242;50.858;6.586;2023-04-24T14:14:45;6.33;;;4.03;;
14316;SDS011;7242;50.858;6.586;2023-04-24T14:17:48;6.73;;;4.40;;
14316;SDS011;7242;50.858;6.586;2023-04-24T14:20:49;7.83;;;3.70;;
14316;SDS011;7242;50.858;6.586;2023-04-24T14:23:51;5.57;;;3.40;;
14316;SDS011;7242;50.858;6.586;2023-04-24T14:26:51;5.60;;;3.50;;
14316;SDS011;7242;50.858;6.586;2023-04-24T14:29:52;6.83;;;3.80;;
14316;SDS011;7242;50.858;6.586;2023-04-24T14:32:53;8.00;;;4.10;;
14316;SDS011;7242;50.858;6.586;2023-04-24T14:35:53;6.23;;;3.67;;
14316;SDS011;7242;50.858;6.586;2023-04-24T14:38:54;6.17;;;3.90;;
14316;SDS011;7242;50.858;6.586;2023-04-24T14:41:55;5.90;;;3.37;;
14316;SDS011;7242;50.858;6.586;2023-04-24T14:44:56;5.47;;;3.93;;
14316;SDS011;7242;50.858;6.586;2023-04-24T14:47:57;8.00;;;3.87;;
14316;SDS011;7242;50.858;6.586;2023-04-24T14:50:58;6.07;;;3.80;;
14316;SDS011;7242;50.858;6.586;2023-04-24T14:53:59;8.13;;;3.67;;
14316;SDS011;7242;50.858;6.586;2023-04-24T14:57:00;7.43;;;3.90;;
14316;SDS011;7242;50.858;6.586;2023-04-24T15:00:05;7.37;;;3.93;;
14316;SDS011;7242;50.858;6.586;2023-04-24T15:03:08;5.23;;;3.30;;
14316;SDS011;7242;50.858;6.586;2023-04-24T15:06:09;5.23;;;3.23;;
14316;SDS011;7242;50.858;6.586;2023-04-24T15:09:10;6.57;;;3.23;;
14316;SDS011;7242;50.858;6.586;2023-04-24T15:12:10;4.67;;;3.40;;
14316;SDS011;7242;50.858;6.586;2023-04-24T15:15:12;5.83;;;4.10;;
14316;SDS011;7242;50.858;6.586;2023-04-24T15:18:13;7.67;;;4.07;;
14316;SDS011;7242;50.858;6.586;2023-04-24T15:21:14;6.70;;;3.93;;
14316;SDS011;7242;50.858;6.586;2023-04-24T15:24:14;5.93;;;4.03;;
14316;SDS011;7242;50.858;6.586;2023-04-24T15:27:15;4.93;;;3.83;;
14316;SDS011;7242;50.858;6.586;2023-04-24T15:30:16;6.50;;;4.00;;
14316;SDS011;7242;50.858;6.586;2023-04-24T15:33:17;7.27;;;3.83;;
14316;SDS011;7242;50.858;6.586;2023-04-24T15:36:18;9.87;;;4.40;;
14316;SDS011;7242;50.858;6.586;2023-04-24T15:39:21;7.27;;;4.20;;
14316;SDS011;7242;50.858;6.586;2023-04-24T15:42:24;6.50;;;3.97;;
14316;SDS011;7242;50.858;6.586;2023-04-24T15:45:25;9.93;;;4.10;;
14316;SDS011;7242;50.858;6.586;2023-04-24T15:48:27;5.93;;;3.73;;
14316;SDS011;7242;50.858;6.586;2023-04-24T15:51:28;6.93;;;3.70;;
14316;SDS011;7242;50.858;6.586;2023-04-24T15:54:29;6.00;;;3.90;;
14316;SDS011;7242;50.858;6.586;2023-04-24T15:57:29;5.07;;;3.53;;
14316;SDS011;7242;50.858;6.586;2023-04-24T16:00:30;9.00;;;4.17;;
14316;SDS011;7242;50.858;6.586;2023-04-24T16:03:33;5.67;;;3.70;;
14316;SDS011;7242;50.858;6.586;2023-04-24T16:06:33;7.90;;;3.50;;
14316;SDS011;7242;50.858;6.586;2023-04-24T16:09:35;5.53;;;3.60;;
14316;SDS011;7242;50.858;6.586;2023-04-24T16:12:35;4.67;;;3.40;;
14316;SDS011;7242;50.858;6.586;2023-04-24T16:15:36;7.07;;;3.97;;
14316;SDS011;7242;50.858;6.586;2023-04-24T16:18:37;6.07;;;3.30;;
14316;SDS011;7242;50.858;6.586;2023-04-24T16:21:39;5.40;;;3.57;;
14316;SDS011;7242;50.858;6.586;2023-04-24T16:24:40;8.30;;;3.40;;
14316;SDS011;7242;50.858;6.586;2023-04-24T16:27:42;17.03;;;11.10;;
14316;SDS011;7242;50.858;6.586;2023-04-24T16:30:43;8.90;;;4.67;;
14316;SDS011;7242;50.858;6.586;2023-04-24T16:33:44;9.77;;;5.03;;
14316;SDS011;7242;50.858;6.586;2023-04-24T16:36:45;7.80;;;3.70;;
14316;SDS011;7242;50.858;6.586;2023-04-24T16:39:45;5.37;;;3.20;;
14316;SDS011;7242;50.858;6.586;2023-04-24T16:42:46;6.57;;;3.37;;
14316;SDS011;7242;50.858;6.586;2023-04-24T16:45:47;5.33;;;3.20;;
14316;SDS011;7242;50.858;6.586;2023-04-24T16:48:48;4.17;;;3.13;;
14316;SDS011;7242;50.858;6.586;2023-04-24T16:51:49;5.97;;;3.60;;
14316;SDS011;7242;50.858;6.586;2023-04-24T16:54:49;6.90;;;3.43;;
14316;SDS011;7242;50.858;6.586;2023-04-24T16:57:51;6.10;;;3.17;;
14316;SDS011;7242;50.858;6.586;2023-04-24T17:00:51;5.37;;;3.10;;
14316;SDS011;7242;50.858;6.586;2023-04-24T17:03:52;4.70;;;2.90;;
14316;SDS011;7242;50.858;6.586;2023-04-24T17:06:54;6.93;;;2.70;;
14316;SDS011;7242;50.858;6.586;2023-04-24T17:09:54;7.53;;;2.83;;
14316;SDS011;7242;50.858;6.586;2023-04-24T17:12:55;5.60;;;2.57;;
14316;SDS011;7242;50.858;6.586;2023-04-24T17:15:56;6.37;;;3.07;;
14316;SDS011;7242;50.858;6.586;2023-04-24T17:18:57;5.40;;;3.17;;
14316;SDS011;7242;50.858;6.586;2023-04-24T17:21:57;8.40;;;4.27;;
14316;SDS011;7242;50.858;6.586;2023-04-24T17:24:58;4.50;;;3.10;;
14316;SDS011;7242;50.858;6.586;2023-04-24T17:27:59;8.50;;;3.97;;
14316;SDS011;7242;50.858;6.586;2023-04-24T17:31:00;4.17;;;3.20;;
14316;SDS011;7242;50.858;6.586;2023-04-24T17:34:01;4.60;;;2.93;;
14316;SDS011;7242;50.858;6.586;2023-04-24T17:37:02;11.20;;;6.77;;
14316;SDS011;7242;50.858;6.586;2023-04-24T17:40:03;15.57;;;8.70;;
14316;SDS011;7242;50.858;6.586;2023-04-24T17:43:05;11.23;;;4.97;;
14316;SDS011;7242;50.858;6.586;2023-04-24T17:46:06;8.13;;;2.90;;
14316;SDS011;7242;50.858;6.586;2023-04-24T17:49:06;5.53;;;2.87;;
14316;SDS011;7242;50.858;6.586;2023-04-24T17:52:07;6.37;;;3.40;;
14316;SDS011;7242;50.858;6.586;2023-04-24T17:55:08;6.00;;;3.80;;
14316;SDS011;7242;50.858;6.586;2023-04-24T17:58:10;6.17;;;4.20;;
14316;SDS011;7242;50.858;6.586;2023-04-24T18:01:11;5.63;;;2.77;;
14316;SDS011;7242;50.858;6.586;2023-04-24T18:04:12;3.73;;;2.57;;
14316;SDS011;7242;50.858;6.586;2023-04-24T18:07:13;2.67;;;2.17;;
14316;SDS011;7242;50.858;6.586;2023-04-24T18:10:14;4.80;;;1.90;;
14316;SDS011;7242;50.858;6.586;2023-04-24T18:13:15;3.43;;;2.40;;
14316;SDS011;7242;50.858;6.586;2023-04-24T18:16:16;5.33;;;2.13;;
14316;SDS011;7242;50.858;6.586;2023-04-24T18:19:17;3.17;;;2.00;;
14316;SDS011;7242;50.858;6.586;2023-04-24T18:22:18;5.03;;;2.20;;
14316;SDS011;7242;50.858;6.586;2023-04-24T18:25:19;2.87;;;1.90;;
14316;SDS011;7242;50.858;6.586;2023-04-24T18:28:25;5.73;;;2.20;;
14316;SDS011;7242;50.858;6.586;2023-04-24T18:31:26;3.43;;;2.10;;
14316;SDS011;7242;50.858;6.586;2023-04-24T18:34:27;7.10;;;2.40;;
14316;SDS011;7242;50.858;6.586;2023-04-24T18:37:28;4.63;;;2.60;;
14316;SDS011;7242;50.858;6.586;2023-04-24T18:40:28;3.47;;;2.50;;